ニューヨーク/JFK の空港の天気 - METARとTAF

ジョン・F・ケネディ国際空港 ( KJFK / JFK ) - アメリカ ニューヨーク州ニューヨーク
飛行場実況気象(Metar)
観測時間06/25 08:51 EDT (06/25 12:51 UTC)
風向・風速北西 9m/s
視程10km以上
天気現象
少しの雲 雲底高度 1160m
少しの雲 雲底高度 7620m
気温22.8℃
湿度64%
気圧1014.1hPa
METARKJFK 251251Z 32018KT 10SM FEW038 FEW250 23/16 A2995 RMK AO2 SLP141 T02280156
過去の天気等 Google飛行場航空写真 Wunderground天気予報

過去48時間のMETAR

飛行場予報(TAF)
発表時間: 6/25 09:03 EDT (6/25 13:03 UTC)
予報対象時間: 25日9時 EDT ~ 26日14時 EDT
風向・風速北西 7m/s 瞬間風速 10m/s
視程10km以上
少しの雲 雲底高度 7620m
25日18時 EDT から
風向・風速北 6m/s 瞬間風速 9m/s
視程10km以上
なし
25日22時 EDT から
風向・風速北北東 4m/s
視程10km以上
なし
26日9時 EDT から
風向・風速東南東 3m/s
視程10km以上
なし
26日12時 EDT から
風向・風速南南東 5m/s
視程10km以上
少しの雲 雲底高度 7620m
KJFK 251303Z 2513/2618 32014G20KT P6SM FEW250
FM252200 35011G18KT P6SM SKC
FM260200 02007KT P6SM SKC
FM261300 12006KT P6SM SKC
FM261600 16010KT P6SM FEW250